Ganado, Texas
Current Conditions -  °F | °C
As of 2:15 AM on Tuesday 21 Oct 2014 (Local Time) from KARM Reporting Station
Clear Clear  
Wind Chill: 62°   Ceiling: Unl
Heat Index: 62°   Visibility: 10mi
Dew Point: 59°   Wind: 3mph
Humidity: 90%   Direction: 10°N
Pressure: 30.01"   Gusts: NA
Location:  29.04°N, 96.51°W
Report Text: KARM 210715Z AUTO 01003KT 10SM CLR 17/15 A3001 RMK AO2 T01650149
Loading
Personal Weather Stations






























Interactive Weather Map
Tropical Storm Tracking
New forecast layout! Learn more

10-Day Weather Forecast

Advertisements
Track Severe Weather on mobile